createdAt,value
2022-09-21T00:01:21.631Z,100807.31
2022-09-21T00:03:51.761Z,100806.31
2022-09-21T00:06:19.723Z,100816.00
2022-09-21T00:08:47.350Z,100809.88
2022-09-21T00:11:21.691Z,100814.31
2022-09-21T00:13:51.947Z,100809.03
2022-09-21T00:16:18.502Z,100809.09
2022-09-21T00:18:45.058Z,100817.94
2022-09-21T00:21:14.164Z,100816.25
2022-09-21T00:23:42.016Z,100818.03
2022-09-21T00:26:14.904Z,100812.03
2022-09-21T00:28:42.296Z,100825.19
2022-09-21T00:31:12.393Z,100814.69
2022-09-21T00:33:40.957Z,100819.09
2022-09-21T00:36:10.751Z,100818.25
2022-09-21T00:38:38.088Z,100814.69
2022-09-21T00:41:06.798Z,100818.25
2022-09-21T00:44:28.596Z,100813.19
2022-09-21T00:47:00.972Z,100816.44
2022-09-21T00:49:28.378Z,100816.44
2022-09-21T00:51:57.086Z,100820.03
2022-09-21T00:54:29.821Z,100818.41
2022-09-21T00:56:59.914Z,100822.75
2022-09-21T00:59:30.079Z,100817.47
2022-09-21T01:01:58.555Z,100807.91
2022-09-21T01:04:26.815Z,100820.16
2022-09-21T01:06:54.025Z,100822.88
2022-09-21T01:09:20.800Z,100817.59
2022-09-21T01:12:03.055Z,100816.03
2022-09-21T01:14:44.441Z,100817.84
2022-09-21T01:17:38.244Z,100825.03
2022-09-21T01:20:42.628Z,100819.03
2022-09-21T01:23:21.412Z,100821.81
2022-09-21T01:26:01.478Z,100824.69
2022-09-21T01:28:46.745Z,100825.75
2022-09-21T01:31:21.766Z,100829.22
2022-09-21T01:33:54.307Z,100829.38
2022-09-21T01:36:25.810Z,100828.53
2022-09-21T01:38:58.479Z,100824.22
2022-09-21T01:41:28.787Z,100833.06
2022-09-21T01:44:02.539Z,100826.16
2022-09-21T01:46:32.236Z,100831.50
2022-09-21T01:49:05.045Z,100830.78
2022-09-21T01:51:34.615Z,100831.75
2022-09-21T01:54:24.578Z,100830.28
2022-09-21T01:57:01.728Z,100832.81
2022-09-21T01:59:38.161Z,100827.69
2022-09-21T02:02:36.082Z,100825.19
2022-09-21T02:05:04.772Z,100831.28
2022-09-21T02:07:33.695Z,100826.00
2022-09-21T02:10:03.083Z,100829.47
2022-09-21T02:12:31.535Z,100826.00
2022-09-21T02:14:58.279Z,100822.50
2022-09-21T02:17:50.752Z,100824.41
2022-09-21T02:20:30.320Z,100828.53
2022-09-21T02:23:06.622Z,100827.75
2022-09-21T02:25:45.867Z,100828.69
2022-09-21T02:28:18.465Z,100831.41
2022-09-21T02:30:55.795Z,100827.91
2022-09-21T02:33:41.464Z,100825.38
2022-09-21T02:36:33.812Z,100827.13
2022-09-21T02:39:10.133Z,100822.84
2022-09-21T02:41:57.511Z,100827.19
2022-09-21T02:44:32.629Z,100828.03
2022-09-21T02:47:13.711Z,100817.69
2022-09-21T02:49:45.901Z,100815.94
2022-09-21T02:52:15.859Z,100820.34
2022-09-21T02:54:47.251Z,100822.09
2022-09-21T02:57:17.200Z,100829.25
2022-09-21T02:59:44.118Z,100821.34
2022-09-21T03:02:12.557Z,100819.63
2022-09-21T03:04:41.330Z,100811.78
2022-09-21T03:07:09.093Z,100824.97
2022-09-21T03:09:36.265Z,100818.81
2022-09-21T03:12:02.867Z,100820.69
2022-09-21T03:14:29.652Z,100818.94
2022-09-21T03:16:56.131Z,100825.22
2022-09-21T03:19:22.647Z,100826.16
2022-09-21T03:21:49.131Z,100828.78
2022-09-21T03:24:35.617Z,100833.34
2022-09-21T03:27:02.099Z,100832.47
2022-09-21T03:29:28.657Z,100836.88
2022-09-21T03:31:56.095Z,100836.97
2022-09-21T03:34:22.993Z,100837.03
2022-09-21T03:36:49.507Z,100833.59
2022-09-21T03:39:15.988Z,100837.16
2022-09-21T03:41:42.472Z,100837.28
2022-09-21T03:44:08.986Z,100837.44
2022-09-21T03:46:35.562Z,100835.88
2022-09-21T03:49:03.101Z,100834.28
2022-09-21T03:51:31.566Z,100840.53
2022-09-21T03:53:58.217Z,100839.81
2022-09-21T03:56:24.747Z,100844.28
2022-09-21T03:58:51.294Z,100843.47
2022-09-21T04:01:17.851Z,100840.00
2022-09-21T04:03:44.338Z,100841.84
2022-09-21T04:06:12.148Z,100848.91
2022-09-21T04:08:39.626Z,100848.91
2022-09-21T04:11:17.798Z,100842.84
2022-09-21T04:13:45.382Z,100847.06
2022-09-21T04:16:11.980Z,100843.47
2022-09-21T04:18:38.710Z,100846.13
2022-09-21T04:21:06.226Z,100839.94
2022-09-21T04:23:32.998Z,100842.59
2022-09-21T04:26:00.098Z,100847.84
2022-09-21T04:28:26.710Z,100846.94
2022-09-21T04:30:55.804Z,100853.03
2022-09-21T04:33:23.916Z,100853.91
2022-09-21T04:35:56.928Z,100845.28
2022-09-21T04:38:23.417Z,100847.84
2022-09-21T04:40:59.560Z,100849.69
2022-09-21T04:43:26.180Z,100849.69
2022-09-21T04:45:52.747Z,100857.72
2022-09-21T04:48:19.285Z,100853.50
2022-09-21T04:50:49.905Z,100858.97
2022-09-21T04:53:16.980Z,100852.06
2022-09-21T04:55:45.444Z,100854.81
2022-09-21T04:58:11.912Z,100856.66
2022-09-21T05:00:38.470Z,100865.47
2022-09-21T05:03:04.941Z,100862.06
2022-09-21T05:05:32.071Z,100853.34
2022-09-21T05:07:58.612Z,100856.91
2022-09-21T05:10:25.232Z,100864.03
2022-09-21T05:12:52.658Z,100860.56
2022-09-21T05:15:19.404Z,100871.16
2022-09-21T05:17:46.746Z,100868.59
2022-09-21T05:20:13.368Z,100870.44
2022-09-21T05:22:39.942Z,100869.53
2022-09-21T05:25:07.338Z,100871.38
2022-09-21T05:27:33.820Z,100876.66
2022-09-21T05:30:00.591Z,100876.66
2022-09-21T05:32:31.352Z,100881.09
2022-09-21T05:35:15.074Z,100887.28
2022-09-21T05:37:53.797Z,100880.22
2022-09-21T05:40:20.867Z,100888.88
2022-09-21T05:42:47.720Z,100889.66
2022-09-21T05:45:16.461Z,100891.47
2022-09-21T05:48:11.149Z,100897.66
2022-09-21T05:50:56.305Z,100901.03
2022-09-21T05:53:44.941Z,100901.03
2022-09-21T05:56:22.522Z,100900.91
2022-09-21T05:59:16.914Z,100899.97
2022-09-21T06:02:03.519Z,100910.41
2022-09-21T06:04:30.430Z,100899.66
2022-09-21T06:06:56.921Z,100912.72
2022-09-21T06:09:25.885Z,100910.81
2022-09-21T06:11:52.662Z,100912.41
2022-09-21T06:14:24.684Z,100907.00
2022-09-21T06:16:52.480Z,100912.06
2022-09-21T06:19:19.143Z,100907.56
2022-09-21T06:21:45.733Z,100906.50
2022-09-21T06:24:12.241Z,100911.56
2022-09-21T06:26:38.750Z,100906.19
2022-09-21T06:29:05.274Z,100910.34
2022-09-21T06:31:31.802Z,100913.69
2022-09-21T06:33:58.284Z,100912.59
2022-09-21T06:36:24.792Z,100913.31
2022-09-21T06:38:51.300Z,100914.00
2022-09-21T06:41:21.419Z,100912.00
2022-09-21T06:43:48.256Z,100912.72
2022-09-21T06:46:15.123Z,100919.56
2022-09-21T06:48:41.723Z,100917.59
2022-09-21T06:51:08.284Z,100920.97
2022-09-21T06:53:35.264Z,100915.47
2022-09-21T06:56:08.110Z,100911.84
2022-09-21T06:58:35.179Z,100911.59
2022-09-21T07:01:12.643Z,100921.97
2022-09-21T07:03:40.489Z,100929.63
2022-09-21T07:06:08.739Z,100926.75
2022-09-21T07:11:24.056Z,100918.34
2022-09-21T07:13:50.867Z,100929.56
2022-09-21T07:16:17.409Z,100923.22
2022-09-21T07:18:44.306Z,100932.63
2022-09-21T07:21:11.848Z,100929.81
2022-09-21T07:23:38.469Z,100930.44
2022-09-21T07:26:08.203Z,100932.00
2022-09-21T07:28:35.663Z,100924.72
2022-09-21T07:31:16.848Z,100928.16
2022-09-21T07:33:46.571Z,100928.63
2022-09-21T07:36:13.338Z,100918.72
2022-09-21T07:38:43.615Z,100924.66
2022-09-21T07:41:13.092Z,100928.84
2022-09-21T07:43:40.473Z,100927.72
2022-09-21T07:46:09.408Z,100933.63
2022-09-21T07:48:36.201Z,100936.91
2022-09-21T07:51:06.175Z,100932.31
2022-09-21T07:53:37.218Z,100939.16
2022-09-21T07:56:05.642Z,100940.59
2022-09-21T07:58:51.273Z,100934.16
2022-09-21T08:01:18.058Z,100941.84
2022-09-21T08:03:44.729Z,100931.91
2022-09-21T08:06:11.292Z,100940.47
2022-09-21T08:08:37.824Z,100934.09
2022-09-21T08:11:07.719Z,100938.19
2022-09-21T08:13:34.897Z,100931.84
2022-09-21T08:16:02.578Z,100932.50
2022-09-21T08:18:30.028Z,100931.31
2022-09-21T08:21:00.825Z,100942.59
2022-09-21T08:23:29.550Z,100936.16
2022-09-21T08:26:03.463Z,100942.13
2022-09-21T08:28:31.271Z,100933.78
2022-09-21T08:31:01.857Z,100941.50
2022-09-21T08:33:29.812Z,100945.63
2022-09-21T08:35:59.885Z,100938.28
2022-09-21T08:38:27.645Z,100938.91
2022-09-21T08:40:54.299Z,100936.88
2022-09-21T08:43:36.836Z,100952.66
2022-09-21T08:46:11.017Z,100942.59
2022-09-21T08:48:46.940Z,100943.22
2022-09-21T08:51:22.134Z,100944.69
2022-09-21T08:53:52.669Z,100940.94
2022-09-21T08:56:22.120Z,100946.84
2022-09-21T08:58:48.817Z,100952.72
2022-09-21T09:01:27.699Z,100947.19
2022-09-21T09:03:56.880Z,100950.38
2022-09-21T09:06:28.146Z,100949.25
2022-09-21T09:09:23.872Z,100947.13
2022-09-21T09:12:08.598Z,100944.91
2022-09-21T09:14:56.725Z,100949.91
2022-09-21T09:17:33.509Z,100952.97
2022-09-21T09:20:12.413Z,100958.88
2022-09-21T09:22:50.277Z,100957.75
2022-09-21T09:25:21.120Z,100949.38
2022-09-21T09:27:53.365Z,100955.19
2022-09-21T09:30:24.779Z,100957.47
2022-09-21T09:33:08.611Z,100960.72
2022-09-21T09:35:40.514Z,100954.22
2022-09-21T09:38:28.225Z,100953.25
2022-09-21T09:41:16.109Z,100960.88
2022-09-21T09:43:55.944Z,100959.75
2022-09-21T09:46:32.747Z,100964.69
2022-09-21T09:49:12.275Z,100962.75
2022-09-21T09:51:40.589Z,100961.41
2022-09-21T09:54:14.486Z,100964.06
2022-09-21T09:56:41.751Z,100960.22
2022-09-21T09:59:18.426Z,100960.88
2022-09-21T10:01:47.476Z,100962.06
2022-09-21T10:04:17.617Z,100961.31
2022-09-21T10:06:46.656Z,100960.50
2022-09-21T10:09:33.898Z,100956.25
2022-09-21T10:12:09.543Z,100954.34
2022-09-21T10:14:36.896Z,100955.97
2022-09-21T10:17:08.291Z,100965.50
2022-09-21T10:19:35.311Z,100957.84
2022-09-21T10:22:04.902Z,100951.41
2022-09-21T10:24:35.853Z,100951.88
2022-09-21T10:27:15.835Z,100950.09
2022-09-21T10:29:46.202Z,100955.03
2022-09-21T10:32:14.946Z,100955.72
2022-09-21T10:34:59.500Z,100952.31
2022-09-21T10:37:42.670Z,100954.22
2022-09-21T10:40:21.643Z,100954.03
2022-09-21T10:42:50.449Z,100950.66
2022-09-21T10:45:25.229Z,100947.22
2022-09-21T10:48:08.584Z,100940.06
2022-09-21T10:50:41.429Z,100942.38
2022-09-21T10:53:10.608Z,100941.03
2022-09-21T10:55:58.159Z,100938.63
2022-09-21T10:58:32.396Z,100946.53
2022-09-21T11:01:20.389Z,100937.03
2022-09-21T11:04:08.749Z,100941.00
2022-09-21T11:06:43.498Z,100941.78
2022-09-21T11:09:12.715Z,100939.25
2022-09-21T11:12:07.595Z,100935.72
2022-09-21T11:14:37.148Z,100939.38
2022-09-21T11:17:20.066Z,100931.13
2022-09-21T11:19:57.343Z,100930.75
2022-09-21T11:22:40.911Z,100925.78
2022-09-21T11:25:25.761Z,100916.44
2022-09-21T11:28:02.288Z,100925.94
2022-09-21T11:30:46.521Z,100914.28
2022-09-21T11:33:32.031Z,100910.84
2022-09-21T11:36:18.114Z,100919.91
2022-09-21T11:38:53.986Z,100907.56
2022-09-21T11:41:59.312Z,100908.59
2022-09-21T11:44:25.747Z,100903.81
2022-09-21T11:47:17.756Z,100909.88
2022-09-21T11:50:26.391Z,100907.06
2022-09-21T11:52:51.290Z,100909.63
2022-09-21T11:55:37.023Z,100901.22
2022-09-21T11:58:29.641Z,100889.59
2022-09-21T12:01:14.939Z,100896.19
2022-09-21T12:04:15.045Z,100889.84
2022-09-21T12:07:01.132Z,100883.59
2022-09-21T12:10:04.401Z,100882.03
2022-09-21T12:12:41.909Z,100879.81
2022-09-21T12:15:20.043Z,100879.88
2022-09-21T12:18:14.974Z,100876.31
2022-09-21T12:21:12.833Z,100872.97
2022-09-21T12:23:51.730Z,100871.72
2022-09-21T12:26:22.376Z,100870.25
2022-09-21T12:29:01.190Z,100871.94
2022-09-21T12:31:42.556Z,100875.50
2022-09-21T12:34:22.617Z,100861.84
2022-09-21T12:37:07.508Z,100866.19
2022-09-21T12:39:49.008Z,100867.41
2022-09-21T12:42:27.739Z,100869.41
2022-09-21T12:45:21.062Z,100858.59
2022-09-21T12:47:59.314Z,100859.69
2022-09-21T12:50:41.256Z,100857.53
2022-09-21T12:53:18.917Z,100851.88
2022-09-21T12:55:54.378Z,100849.09
2022-09-21T12:58:41.252Z,100847.75
2022-09-21T13:01:23.244Z,100850.84
2022-09-21T13:04:03.027Z,100840.44
2022-09-21T13:06:54.235Z,100849.19
2022-09-21T13:09:22.406Z,100838.78
2022-09-21T13:12:00.415Z,100842.81
2022-09-21T13:14:34.776Z,100844.56
2022-09-21T13:17:03.426Z,100836.41
2022-09-21T13:19:33.550Z,100837.94
2022-09-21T13:22:23.904Z,100834.66
2022-09-21T13:25:15.283Z,100835.25
2022-09-21T13:28:09.360Z,100825.69
2022-09-21T13:30:43.263Z,100836.72
2022-09-21T13:33:18.880Z,100831.94
2022-09-21T13:35:48.223Z,100829.44
2022-09-21T13:38:34.189Z,100821.16
2022-09-21T13:41:03.930Z,100819.34
2022-09-21T13:44:04.384Z,100819.16
2022-09-21T13:46:34.743Z,100816.00
2022-09-21T13:49:10.603Z,100814.13
2022-09-21T13:51:57.342Z,100811.03
2022-09-21T13:54:38.715Z,100810.50
2022-09-21T13:57:23.632Z,100804.09
2022-09-21T14:00:07.796Z,100803.41
2022-09-21T14:02:38.415Z,100800.66
2022-09-21T14:05:32.572Z,100800.22
2022-09-21T14:08:03.146Z,100800.56
2022-09-21T14:10:32.245Z,100796.59
2022-09-21T14:13:00.868Z,100799.91
2022-09-21T14:15:27.343Z,100800.97
2022-09-21T14:18:36.970Z,100806.59
2022-09-21T14:21:09.944Z,100797.78
2022-09-21T14:23:38.139Z,100796.44
2022-09-21T14:26:41.490Z,100801.91
2022-09-21T14:29:34.932Z,100797.63
2022-09-21T14:32:04.412Z,100799.97
2022-09-21T14:34:36.985Z,100798.66
2022-09-21T14:37:13.026Z,100799.84
2022-09-21T14:39:44.433Z,100795.78
2022-09-21T14:42:17.394Z,100782.50
2022-09-21T14:44:44.671Z,100778.94
2022-09-21T14:47:29.663Z,100783.59
2022-09-21T14:50:15.600Z,100781.84
2022-09-21T14:53:01.149Z,100772.38
2022-09-21T14:55:58.540Z,100770.34
2022-09-21T14:58:50.067Z,100772.28
2022-09-21T15:01:43.015Z,100769.41
2022-09-21T15:04:45.291Z,100761.69
2022-09-21T15:07:56.153Z,100768.41
2022-09-21T15:10:55.334Z,100757.78
2022-09-21T15:13:53.505Z,100754.94
2022-09-21T15:16:38.854Z,100744.09
2022-09-21T15:19:26.240Z,100751.38
2022-09-21T15:21:56.839Z,100751.63
2022-09-21T15:24:34.120Z,100751.22
2022-09-21T15:27:15.870Z,100746.44
2022-09-21T15:29:49.244Z,100744.25
2022-09-21T15:32:24.468Z,100748.50
2022-09-21T15:35:15.888Z,100744.84
2022-09-21T15:37:43.203Z,100751.53
2022-09-21T15:40:18.041Z,100746.78
2022-09-21T15:43:09.394Z,100739.56
2022-09-21T15:45:59.189Z,100739.53
2022-09-21T15:48:29.053Z,100743.50
2022-09-21T15:51:24.718Z,100744.91
2022-09-21T15:53:56.202Z,100747.84
2022-09-21T15:56:26.122Z,100743.34
2022-09-21T15:59:09.067Z,100741.25
2022-09-21T16:01:47.614Z,100739.75
2022-09-21T16:04:18.971Z,100741.59
2022-09-21T16:06:57.623Z,100741.63
2022-09-21T16:09:24.035Z,100739.28
2022-09-21T16:11:52.208Z,100737.22
2022-09-21T16:14:38.549Z,100733.75
2022-09-21T16:17:14.025Z,100737.16
2022-09-21T16:19:55.798Z,100742.44
2022-09-21T16:22:29.606Z,100731.88
2022-09-21T16:25:00.107Z,100743.56
2022-09-21T16:27:32.395Z,100742.16
2022-09-21T16:30:01.154Z,100741.06
2022-09-21T16:32:29.951Z,100743.88
2022-09-21T16:35:18.156Z,100747.47
2022-09-21T16:37:44.647Z,100744.28
2022-09-21T16:40:11.183Z,100733.66
2022-09-21T16:42:38.462Z,100744.66
2022-09-21T16:45:24.344Z,100749.53
2022-09-21T16:47:53.337Z,100750.44
2022-09-21T16:50:20.221Z,100747.09
2022-09-21T16:52:47.031Z,100739.63
2022-09-21T16:55:15.607Z,100754.28
2022-09-21T16:57:46.077Z,100747.50
2022-09-21T17:00:13.928Z,100748.47
2022-09-21T17:02:42.793Z,100750.31
2022-09-21T17:05:10.046Z,100750.56
2022-09-21T17:07:36.761Z,100751.53
2022-09-21T17:10:12.827Z,100754.88
2022-09-21T17:12:39.471Z,100749.44
2022-09-21T17:15:07.964Z,100755.19
2022-09-21T17:17:34.668Z,100752.00
2022-09-21T17:20:07.055Z,100754.06
2022-09-21T17:22:33.550Z,100758.66
2022-09-21T17:25:00.013Z,100756.16
2022-09-21T17:27:29.460Z,100755.47
2022-09-21T17:29:56.516Z,100755.69
2022-09-21T17:32:24.760Z,100761.22
2022-09-21T17:34:58.768Z,100760.66
2022-09-21T17:37:25.512Z,100755.38
2022-09-21T17:39:53.660Z,100758.19
2022-09-21T17:42:25.205Z,100760.16
2022-09-21T17:45:20.798Z,100755.31
2022-09-21T17:47:50.315Z,100753.16
2022-09-21T17:50:25.471Z,100760.44
2022-09-21T17:53:11.312Z,100763.00
2022-09-21T17:55:41.125Z,100763.09
2022-09-21T17:58:19.502Z,100763.22
2022-09-21T18:01:07.437Z,100763.31
2022-09-21T18:03:41.197Z,100768.28
2022-09-21T18:06:09.035Z,100757.47
2022-09-21T18:08:37.203Z,100761.78
2022-09-21T18:11:28.081Z,100757.63
2022-09-21T18:14:31.115Z,100756.38
2022-09-21T18:17:32.417Z,100767.00
2022-09-21T18:20:10.900Z,100768.19
2022-09-21T18:22:56.119Z,100771.06
2022-09-21T18:25:47.765Z,100767.00
2022-09-21T18:28:44.179Z,100773.91
2022-09-21T18:31:41.963Z,100778.81
2022-09-21T18:34:15.403Z,100773.31
2022-09-21T18:36:48.499Z,100764.13
2022-09-21T18:39:17.599Z,100769.03
2022-09-21T18:41:55.861Z,100763.97
2022-09-21T18:44:41.921Z,100770.38
2022-09-21T18:47:22.372Z,100771.13
2022-09-21T18:49:59.012Z,100765.38
2022-09-21T18:52:35.334Z,100767.75
2022-09-21T18:55:02.360Z,100774.44
2022-09-21T18:57:32.457Z,100768.69
2022-09-21T18:59:59.868Z,100765.72
2022-09-21T19:02:27.290Z,100768.72
2022-09-21T19:04:54.188Z,100765.63
2022-09-21T19:07:46.991Z,100776.97
2022-09-21T19:10:16.217Z,100776.19
2022-09-21T19:12:52.292Z,100772.28
2022-09-21T19:15:59.362Z,100777.03
2022-09-21T19:18:46.431Z,100780.09
2022-09-21T19:21:30.263Z,100771.41
2022-09-21T19:23:56.709Z,100771.78
2022-09-21T19:26:29.759Z,100782.84
2022-09-21T19:29:13.024Z,100775.16
2022-09-21T19:31:40.000Z,100777.72
2022-09-21T19:34:19.733Z,100781.09
2022-09-21T19:36:50.112Z,100784.63
2022-09-21T19:39:16.912Z,100780.66
2022-09-21T19:41:43.446Z,100781.72
2022-09-21T19:44:18.020Z,100781.16
2022-09-21T19:47:09.745Z,100780.81
2022-09-21T19:50:03.779Z,100776.44
2022-09-21T19:52:34.552Z,100776.53
2022-09-21T19:55:20.683Z,100779.28
2022-09-21T19:58:06.074Z,100780.34
2022-09-21T20:00:32.798Z,100783.09
2022-09-21T20:03:09.071Z,100778.84
2022-09-21T20:06:11.377Z,100786.25
2022-09-21T20:08:56.259Z,100783.59
2022-09-21T20:11:34.846Z,100780.28
2022-09-21T20:14:18.721Z,100779.72
2022-09-21T20:16:53.376Z,100781.72
2022-09-21T20:19:49.177Z,100783.84
2022-09-21T20:22:17.873Z,100786.56
2022-09-21T20:24:53.197Z,100785.88
2022-09-21T20:27:28.841Z,100776.47
2022-09-21T20:29:55.349Z,100778.31
2022-09-21T20:32:22.818Z,100778.47
2022-09-21T20:34:50.278Z,100776.13
2022-09-21T20:37:20.306Z,100777.16
2022-09-21T20:39:46.792Z,100784.47
2022-09-21T20:42:22.086Z,100775.06
2022-09-21T20:44:48.594Z,100775.06
2022-09-21T20:47:15.081Z,100771.78
2022-09-21T20:49:41.674Z,100778.13
2022-09-21T20:52:10.367Z,100773.88
2022-09-21T20:54:36.828Z,100776.69
2022-09-21T20:57:03.503Z,100776.78
2022-09-21T20:59:29.977Z,100775.09
2022-09-21T21:01:56.597Z,100784.09
2022-09-21T21:04:23.498Z,100780.66
2022-09-21T21:06:50.023Z,100775.56
2022-09-21T21:09:16.597Z,100774.06
2022-09-21T21:11:43.291Z,100776.78
2022-09-21T21:14:09.764Z,100773.38
2022-09-21T21:16:37.369Z,100786.84
2022-09-21T21:19:04.547Z,100781.72
2022-09-21T21:21:31.157Z,100773.94
2022-09-21T21:24:16.556Z,100779.44
2022-09-21T21:27:02.242Z,100775.16
2022-09-21T21:29:30.169Z,100777.13
2022-09-21T21:31:56.766Z,100792.31
2022-09-21T21:34:23.351Z,100781.88
2022-09-21T21:36:49.844Z,100784.69
2022-09-21T21:39:16.456Z,100786.59
2022-09-21T21:41:43.492Z,100784.03
2022-09-21T21:44:11.580Z,100785.06
2022-09-21T21:46:38.147Z,100779.00
2022-09-21T21:49:05.042Z,100782.59
2022-09-21T21:51:31.563Z,100774.72
2022-09-21T21:53:58.170Z,100774.81
2022-09-21T21:56:24.705Z,100774.06
2022-09-21T21:58:54.722Z,100774.16
2022-09-21T22:01:27.027Z,100769.13
2022-09-21T22:03:58.904Z,100774.41
2022-09-21T22:06:26.914Z,100778.03
2022-09-21T22:08:55.313Z,100766.75
2022-09-21T22:11:23.684Z,100769.50
2022-09-21T22:13:50.548Z,100770.44
2022-09-21T22:16:22.084Z,100771.47
2022-09-21T22:18:50.062Z,100774.13
2022-09-21T22:21:53.158Z,100767.44
2022-09-21T22:24:21.113Z,100773.41
2022-09-21T22:26:48.625Z,100766.16
2022-09-21T22:29:17.138Z,100775.22
2022-09-21T22:31:46.625Z,100769.34
2022-09-21T22:34:14.629Z,100772.16
2022-09-21T22:36:41.230Z,100768.84
2022-09-21T22:39:08.480Z,100769.97
2022-09-21T22:41:40.179Z,100766.69
2022-09-21T22:44:07.681Z,100768.59
2022-09-21T22:46:35.131Z,100768.75
2022-09-21T22:49:02.169Z,100769.88
2022-09-21T22:51:29.672Z,100775.38
2022-09-21T22:53:56.643Z,100770.25
2022-09-21T22:56:28.857Z,100775.69
2022-09-21T22:58:58.716Z,100766.06
2022-09-21T23:01:27.193Z,100764.34
2022-09-21T23:03:59.201Z,100772.38
2022-09-21T23:06:28.207Z,100759.22
2022-09-21T23:08:56.414Z,100767.16
2022-09-21T23:11:24.183Z,100765.47
2022-09-21T23:13:50.738Z,100759.38
2022-09-21T23:16:18.049Z,100762.97
2022-09-21T23:18:44.807Z,100763.06
2022-09-21T23:21:14.240Z,100765.78
2022-09-21T23:23:41.374Z,100768.53
2022-09-21T23:26:12.669Z,100761.59
2022-09-21T23:28:41.887Z,100766.16
2022-09-21T23:31:11.205Z,100756.59
2022-09-21T23:33:41.469Z,100757.63
2022-09-21T23:36:10.263Z,100752.47
2022-09-21T23:38:37.245Z,100750.88
2022-09-21T23:41:12.341Z,100751.97
2022-09-21T23:43:40.510Z,100752.91
2022-09-21T23:46:08.751Z,100753.84
2022-09-21T23:48:35.752Z,100750.50
2022-09-21T23:51:03.047Z,100747.13
2022-09-21T23:53:30.014Z,100741.03
2022-09-21T23:55:57.814Z,100746.41
2022-09-21T23:58:25.554Z,100743.84
